sensor_id;sensor_type;location;lat;lon;timestamp;P1;durP1;ratioP1;P2;durP2;ratioP2
25637;SDS011;13496;51.040;13.680;2023-06-10T00:02:04;5.05;;;4.65;;
25637;SDS011;13496;51.040;13.680;2023-06-10T00:07:07;5.35;;;4.85;;
25637;SDS011;13496;51.040;13.680;2023-06-10T00:12:09;5.13;;;4.63;;
25637;SDS011;13496;51.040;13.680;2023-06-10T00:17:11;4.28;;;3.88;;
25637;SDS011;13496;51.040;13.680;2023-06-10T00:22:13;5.25;;;4.75;;
25637;SDS011;13496;51.040;13.680;2023-06-10T00:27:15;5.28;;;4.88;;
25637;SDS011;13496;51.040;13.680;2023-06-10T00:32:17;4.82;;;4.43;;
25637;SDS011;13496;51.040;13.680;2023-06-10T00:37:19;5.15;;;4.72;;
25637;SDS011;13496;51.040;13.680;2023-06-10T00:42:20;4.53;;;4.22;;
25637;SDS011;13496;51.040;13.680;2023-06-10T00:47:25;4.95;;;4.55;;
25637;SDS011;13496;51.040;13.680;2023-06-10T00:52:28;4.50;;;4.20;;
25637;SDS011;13496;51.040;13.680;2023-06-10T00:57:31;4.50;;;4.10;;
25637;SDS011;13496;51.040;13.680;2023-06-10T01:02:33;4.40;;;4.10;;
25637;SDS011;13496;51.040;13.680;2023-06-10T01:07:37;4.70;;;4.30;;
25637;SDS011;13496;51.040;13.680;2023-06-10T01:13:04;4.30;;;3.90;;
25637;SDS011;13496;51.040;13.680;2023-06-10T01:18:10;4.05;;;3.75;;
25637;SDS011;13496;51.040;13.680;2023-06-10T01:23:16;4.32;;;3.92;;
25637;SDS011;13496;51.040;13.680;2023-06-10T01:28:28;4.38;;;4.07;;
25637;SDS011;13496;51.040;13.680;2023-06-10T01:33:36;4.50;;;4.10;;
25637;SDS011;13496;51.040;13.680;2023-06-10T01:38:43;4.60;;;4.20;;
25637;SDS011;13496;51.040;13.680;2023-06-10T01:43:46;4.82;;;4.43;;
25637;SDS011;13496;51.040;13.680;2023-06-10T01:48:49;4.32;;;4.03;;
25637;SDS011;13496;51.040;13.680;2023-06-10T01:53:51;5.00;;;3.80;;
25637;SDS011;13496;51.040;13.680;2023-06-10T01:58:52;3.95;;;3.65;;
25637;SDS011;13496;51.040;13.680;2023-06-10T02:03:57;4.35;;;4.05;;
25637;SDS011;13496;51.040;13.680;2023-06-10T02:08:59;4.43;;;4.13;;
25637;SDS011;13496;51.040;13.680;2023-06-10T02:14:00;4.40;;;4.03;;
25637;SDS011;13496;51.040;13.680;2023-06-10T02:19:02;4.40;;;4.10;;
25637;SDS011;13496;51.040;13.680;2023-06-10T02:24:07;4.25;;;3.95;;
25637;SDS011;13496;51.040;13.680;2023-06-10T02:29:11;4.35;;;3.95;;
25637;SDS011;13496;51.040;13.680;2023-06-10T02:34:13;4.53;;;4.13;;
25637;SDS011;13496;51.040;13.680;2023-06-10T02:39:15;4.32;;;4.03;;
25637;SDS011;13496;51.040;13.680;2023-06-10T02:44:19;4.43;;;4.13;;
25637;SDS011;13496;51.040;13.680;2023-06-10T02:49:22;4.55;;;4.22;;
25637;SDS011;13496;51.040;13.680;2023-06-10T02:54:24;5.45;;;4.40;;
25637;SDS011;13496;51.040;13.680;2023-06-10T02:59:27;4.55;;;4.15;;
25637;SDS011;13496;51.040;13.680;2023-06-10T03:04:30;4.80;;;4.47;;
25637;SDS011;13496;51.040;13.680;2023-06-10T03:09:46;4.32;;;4.03;;
25637;SDS011;13496;51.040;13.680;2023-06-10T03:14:50;4.53;;;4.22;;
25637;SDS011;13496;51.040;13.680;2023-06-10T03:19:53;4.38;;;4.07;;
25637;SDS011;13496;51.040;13.680;2023-06-10T03:24:55;4.10;;;3.80;;
25637;SDS011;13496;51.040;13.680;2023-06-10T03:29:59;3.97;;;3.67;;
25637;SDS011;13496;51.040;13.680;2023-06-10T03:35:02;4.40;;;4.00;;
25637;SDS011;13496;51.040;13.680;2023-06-10T03:40:09;3.83;;;3.53;;
25637;SDS011;13496;51.040;13.680;2023-06-10T03:45:14;4.68;;;4.22;;
25637;SDS011;13496;51.040;13.680;2023-06-10T03:50:15;3.90;;;3.63;;
25637;SDS011;13496;51.040;13.680;2023-06-10T03:55:19;4.70;;;4.30;;
25637;SDS011;13496;51.040;13.680;2023-06-10T04:00:23;4.60;;;4.30;;
25637;SDS011;13496;51.040;13.680;2023-06-10T04:05:25;4.35;;;3.97;;
25637;SDS011;13496;51.040;13.680;2023-06-10T04:10:27;4.20;;;3.90;;
25637;SDS011;13496;51.040;13.680;2023-06-10T04:15:30;4.70;;;4.30;;
25637;SDS011;13496;51.040;13.680;2023-06-10T04:20:36;4.00;;;3.70;;
25637;SDS011;13496;51.040;13.680;2023-06-10T04:25:38;4.15;;;3.85;;
25637;SDS011;13496;51.040;13.680;2023-06-10T04:30:40;4.47;;;4.10;;
25637;SDS011;13496;51.040;13.680;2023-06-10T04:35:43;4.22;;;3.92;;
25637;SDS011;13496;51.040;13.680;2023-06-10T04:40:48;4.10;;;3.80;;
25637;SDS011;13496;51.040;13.680;2023-06-10T04:45:51;4.50;;;4.20;;
25637;SDS011;13496;51.040;13.680;2023-06-10T04:50:53;4.70;;;4.30;;
25637;SDS011;13496;51.040;13.680;2023-06-10T04:55:56;4.20;;;3.90;;
25637;SDS011;13496;51.040;13.680;2023-06-10T05:00:58;4.68;;;4.28;;
25637;SDS011;13496;51.040;13.680;2023-06-10T05:06:01;4.45;;;4.05;;
25637;SDS011;13496;51.040;13.680;2023-06-10T05:11:02;4.30;;;4.00;;
25637;SDS011;13496;51.040;13.680;2023-06-10T05:16:04;4.00;;;3.70;;
25637;SDS011;13496;51.040;13.680;2023-06-10T05:21:06;4.63;;;4.22;;
25637;SDS011;13496;51.040;13.680;2023-06-10T05:26:08;4.50;;;4.10;;
25637;SDS011;13496;51.040;13.680;2023-06-10T05:31:10;4.00;;;3.70;;
25637;SDS011;13496;51.040;13.680;2023-06-10T05:36:12;4.15;;;3.85;;
25637;SDS011;13496;51.040;13.680;2023-06-10T05:41:13;4.47;;;4.07;;
25637;SDS011;13496;51.040;13.680;2023-06-10T05:46:15;4.38;;;4.00;;
25637;SDS011;13496;51.040;13.680;2023-06-10T05:51:17;4.10;;;3.80;;
25637;SDS011;13496;51.040;13.680;2023-06-10T05:56:19;4.28;;;3.92;;
25637;SDS011;13496;51.040;13.680;2023-06-10T06:01:22;4.25;;;3.92;;
25637;SDS011;13496;51.040;13.680;2023-06-10T06:06:24;4.05;;;3.65;;
25637;SDS011;13496;51.040;13.680;2023-06-10T06:11:26;4.03;;;3.63;;
25637;SDS011;13496;51.040;13.680;2023-06-10T06:16:28;4.15;;;3.85;;
25637;SDS011;13496;51.040;13.680;2023-06-10T06:21:30;3.92;;;3.63;;
25637;SDS011;13496;51.040;13.680;2023-06-10T06:26:32;4.85;;;4.45;;
25637;SDS011;13496;51.040;13.680;2023-06-10T06:31:33;5.13;;;4.68;;
25637;SDS011;13496;51.040;13.680;2023-06-10T06:36:36;7.93;;;5.55;;
25637;SDS011;13496;51.040;13.680;2023-06-10T06:41:37;11.77;;;5.45;;
25637;SDS011;13496;51.040;13.680;2023-06-10T06:46:39;4.63;;;4.20;;
25637;SDS011;13496;51.040;13.680;2023-06-10T06:51:41;5.15;;;4.65;;
25637;SDS011;13496;51.040;13.680;2023-06-10T06:56:43;6.38;;;5.47;;
25637;SDS011;13496;51.040;13.680;2023-06-10T07:01:45;7.70;;;5.15;;
25637;SDS011;13496;51.040;13.680;2023-06-10T07:06:48;5.93;;;4.95;;
25637;SDS011;13496;51.040;13.680;2023-06-10T07:11:49;7.05;;;5.32;;
25637;SDS011;13496;51.040;13.680;2023-06-10T07:16:51;6.25;;;5.65;;
25637;SDS011;13496;51.040;13.680;2023-06-10T07:21:53;5.93;;;5.38;;
25637;SDS011;13496;51.040;13.680;2023-06-10T07:26:55;5.45;;;4.95;;
25637;SDS011;13496;51.040;13.680;2023-06-10T07:31:56;5.75;;;5.10;;
25637;SDS011;13496;51.040;13.680;2023-06-10T07:36:58;5.53;;;5.00;;
25637;SDS011;13496;51.040;13.680;2023-06-10T07:42:00;5.05;;;4.57;;
25637;SDS011;13496;51.040;13.680;2023-06-10T07:47:02;5.68;;;5.18;;
25637;SDS011;13496;51.040;13.680;2023-06-10T07:52:04;7.32;;;5.00;;
25637;SDS011;13496;51.040;13.680;2023-06-10T07:57:06;5.75;;;4.80;;
25637;SDS011;13496;51.040;13.680;2023-06-10T08:02:08;5.53;;;5.03;;
25637;SDS011;13496;51.040;13.680;2023-06-10T08:07:10;4.90;;;4.50;;
25637;SDS011;13496;51.040;13.680;2023-06-10T08:12:12;5.38;;;4.88;;
25637;SDS011;13496;51.040;13.680;2023-06-10T08:17:16;5.35;;;4.85;;
25637;SDS011;13496;51.040;13.680;2023-06-10T08:22:18;5.15;;;4.72;;
25637;SDS011;13496;51.040;13.680;2023-06-10T08:27:20;5.32;;;4.85;;
25637;SDS011;13496;51.040;13.680;2023-06-10T08:32:21;5.00;;;4.60;;
25637;SDS011;13496;51.040;13.680;2023-06-10T08:37:23;5.10;;;4.70;;
25637;SDS011;13496;51.040;13.680;2023-06-10T08:42:31;4.97;;;4.57;;
25637;SDS011;13496;51.040;13.680;2023-06-10T08:47:37;5.72;;;5.32;;
25637;SDS011;13496;51.040;13.680;2023-06-10T08:52:44;5.57;;;5.18;;
25637;SDS011;13496;51.040;13.680;2023-06-10T08:57:49;5.85;;;5.25;;
25637;SDS011;13496;51.040;13.680;2023-06-10T09:02:51;5.35;;;4.95;;
25637;SDS011;13496;51.040;13.680;2023-06-10T09:07:53;5.75;;;5.15;;
25637;SDS011;13496;51.040;13.680;2023-06-10T09:12:55;5.25;;;4.85;;
25637;SDS011;13496;51.040;13.680;2023-06-10T09:17:57;6.00;;;5.50;;
25637;SDS011;13496;51.040;13.680;2023-06-10T09:22:59;5.57;;;5.05;;
25637;SDS011;13496;51.040;13.680;2023-06-10T09:28:01;6.93;;;6.32;;
25637;SDS011;13496;51.040;13.680;2023-06-10T09:33:09;5.97;;;5.47;;
25637;SDS011;13496;51.040;13.680;2023-06-10T09:38:13;6.90;;;6.25;;
25637;SDS011;13496;51.040;13.680;2023-06-10T09:43:17;6.57;;;6.05;;
25637;SDS011;13496;51.040;13.680;2023-06-10T09:48:19;7.15;;;6.55;;
25637;SDS011;13496;51.040;13.680;2023-06-10T09:53:20;5.95;;;5.55;;
25637;SDS011;13496;51.040;13.680;2023-06-10T09:58:37;5.70;;;5.22;;
25637;SDS011;13496;51.040;13.680;2023-06-10T10:03:43;5.55;;;5.10;;
25637;SDS011;13496;51.040;13.680;2023-06-10T10:08:49;5.32;;;4.88;;
25637;SDS011;13496;51.040;13.680;2023-06-10T10:13:52;6.13;;;5.53;;
25637;SDS011;13496;51.040;13.680;2023-06-10T10:18:55;5.72;;;5.25;;
25637;SDS011;13496;51.040;13.680;2023-06-10T10:24:07;6.43;;;5.57;;
25637;SDS011;13496;51.040;13.680;2023-06-10T10:39:53;6.05;;;5.40;;
25637;SDS011;13496;51.040;13.680;2023-06-10T10:44:56;6.13;;;5.63;;
25637;SDS011;13496;51.040;13.680;2023-06-10T10:49:58;5.85;;;5.35;;
25637;SDS011;13496;51.040;13.680;2023-06-10T10:55:00;5.57;;;5.07;;
25637;SDS011;13496;51.040;13.680;2023-06-10T11:00:13;5.53;;;5.03;;
25637;SDS011;13496;51.040;13.680;2023-06-10T11:05:42;5.90;;;5.40;;
25637;SDS011;13496;51.040;13.680;2023-06-10T11:10:51;6.40;;;5.90;;
25637;SDS011;13496;51.040;13.680;2023-06-10T11:15:56;6.07;;;5.68;;
25637;SDS011;13496;51.040;13.680;2023-06-10T11:20:59;6.10;;;5.60;;
25637;SDS011;13496;51.040;13.680;2023-06-10T11:31:33;5.90;;;5.40;;
25637;SDS011;13496;51.040;13.680;2023-06-10T11:36:43;5.60;;;5.13;;
25637;SDS011;13496;51.040;13.680;2023-06-10T11:41:46;6.10;;;5.43;;
25637;SDS011;13496;51.040;13.680;2023-06-10T11:46:49;6.05;;;5.45;;
25637;SDS011;13496;51.040;13.680;2023-06-10T11:51:51;6.60;;;5.88;;
25637;SDS011;13496;51.040;13.680;2023-06-10T11:56:57;6.15;;;5.65;;
25637;SDS011;13496;51.040;13.680;2023-06-10T12:01:59;6.10;;;5.50;;
25637;SDS011;13496;51.040;13.680;2023-06-10T12:07:01;6.68;;;6.05;;
25637;SDS011;13496;51.040;13.680;2023-06-10T12:12:03;6.70;;;5.82;;
25637;SDS011;13496;51.040;13.680;2023-06-10T12:17:07;5.65;;;5.15;;
25637;SDS011;13496;51.040;13.680;2023-06-10T12:22:09;6.50;;;5.78;;
25637;SDS011;13496;51.040;13.680;2023-06-10T12:27:11;6.40;;;5.40;;
25637;SDS011;13496;51.040;13.680;2023-06-10T12:32:13;6.40;;;5.80;;
25637;SDS011;13496;51.040;13.680;2023-06-10T12:37:16;6.30;;;5.30;;
25637;SDS011;13496;51.040;13.680;2023-06-10T12:42:18;6.55;;;5.95;;
25637;SDS011;13496;51.040;13.680;2023-06-10T12:47:29;5.70;;;5.00;;
25637;SDS011;13496;51.040;13.680;2023-06-10T12:52:36;6.35;;;5.75;;
25637;SDS011;13496;51.040;13.680;2023-06-10T12:57:37;5.70;;;5.28;;
25637;SDS011;13496;51.040;13.680;2023-06-10T13:02:49;6.10;;;5.50;;
25637;SDS011;13496;51.040;13.680;2023-06-10T13:07:51;5.60;;;5.10;;
25637;SDS011;13496;51.040;13.680;2023-06-10T13:12:53;6.15;;;5.57;;
25637;SDS011;13496;51.040;13.680;2023-06-10T13:17:58;6.25;;;5.65;;
25637;SDS011;13496;51.040;13.680;2023-06-10T13:22:59;6.35;;;5.68;;
25637;SDS011;13496;51.040;13.680;2023-06-10T13:28:01;6.68;;;5.35;;
25637;SDS011;13496;51.040;13.680;2023-06-10T13:33:03;5.80;;;5.25;;
25637;SDS011;13496;51.040;13.680;2023-06-10T13:38:05;5.60;;;5.18;;
25637;SDS011;13496;51.040;13.680;2023-06-10T13:43:08;5.22;;;4.78;;
25637;SDS011;13496;51.040;13.680;2023-06-10T13:48:11;5.30;;;4.90;;
25637;SDS011;13496;51.040;13.680;2023-06-10T13:53:12;5.47;;;5.00;;
25637;SDS011;13496;51.040;13.680;2023-06-10T13:58:14;5.50;;;4.90;;
25637;SDS011;13496;51.040;13.680;2023-06-10T14:03:16;5.50;;;5.00;;
25637;SDS011;13496;51.040;13.680;2023-06-10T14:08:17;5.05;;;4.65;;
25637;SDS011;13496;51.040;13.680;2023-06-10T14:13:19;5.05;;;4.65;;
25637;SDS011;13496;51.040;13.680;2023-06-10T14:18:21;5.85;;;4.30;;
25637;SDS011;13496;51.040;13.680;2023-06-10T14:23:23;5.13;;;4.72;;
25637;SDS011;13496;51.040;13.680;2023-06-10T14:28:26;5.55;;;4.97;;
25637;SDS011;13496;51.040;13.680;2023-06-10T14:33:29;4.93;;;4.43;;
25637;SDS011;13496;51.040;13.680;2023-06-10T14:38:32;5.00;;;4.60;;
25637;SDS011;13496;51.040;13.680;2023-06-10T14:43:34;4.60;;;4.28;;
25637;SDS011;13496;51.040;13.680;2023-06-10T14:48:35;5.15;;;4.40;;
25637;SDS011;13496;51.040;13.680;2023-06-10T14:53:37;4.65;;;4.25;;
25637;SDS011;13496;51.040;13.680;2023-06-10T14:58:39;4.75;;;4.35;;
25637;SDS011;13496;51.040;13.680;2023-06-10T15:03:40;4.85;;;4.45;;
25637;SDS011;13496;51.040;13.680;2023-06-10T15:08:42;5.32;;;4.43;;
25637;SDS011;13496;51.040;13.680;2023-06-10T15:13:44;4.57;;;4.20;;
25637;SDS011;13496;51.040;13.680;2023-06-10T15:18:46;5.07;;;4.57;;
25637;SDS011;13496;51.040;13.680;2023-06-10T15:23:47;4.88;;;4.57;;
25637;SDS011;13496;51.040;13.680;2023-06-10T15:28:49;4.90;;;4.55;;
25637;SDS011;13496;51.040;13.680;2023-06-10T15:33:51;5.47;;;4.97;;
25637;SDS011;13496;51.040;13.680;2023-06-10T15:38:53;6.38;;;5.00;;
25637;SDS011;13496;51.040;13.680;2023-06-10T15:43:55;5.43;;;4.93;;
25637;SDS011;13496;51.040;13.680;2023-06-10T15:48:57;5.78;;;5.20;;
25637;SDS011;13496;51.040;13.680;2023-06-10T15:53:59;6.43;;;5.00;;
25637;SDS011;13496;51.040;13.680;2023-06-10T15:59:01;7.68;;;5.50;;
25637;SDS011;13496;51.040;13.680;2023-06-10T16:04:03;6.07;;;5.47;;
25637;SDS011;13496;51.040;13.680;2023-06-10T16:09:05;5.75;;;5.25;;
25637;SDS011;13496;51.040;13.680;2023-06-10T16:14:08;5.80;;;5.30;;
25637;SDS011;13496;51.040;13.680;2023-06-10T16:19:09;5.88;;;5.38;;
25637;SDS011;13496;51.040;13.680;2023-06-10T16:24:11;6.55;;;5.78;;
25637;SDS011;13496;51.040;13.680;2023-06-10T16:29:13;5.60;;;5.20;;
25637;SDS011;13496;51.040;13.680;2023-06-10T16:34:15;6.07;;;5.60;;
25637;SDS011;13496;51.040;13.680;2023-06-10T16:39:18;7.70;;;5.55;;
25637;SDS011;13496;51.040;13.680;2023-06-10T16:44:19;6.47;;;5.78;;
25637;SDS011;13496;51.040;13.680;2023-06-10T16:49:21;5.43;;;5.03;;
25637;SDS011;13496;51.040;13.680;2023-06-10T16:54:23;6.05;;;5.50;;
25637;SDS011;13496;51.040;13.680;2023-06-10T16:59:25;6.13;;;5.40;;
25637;SDS011;13496;51.040;13.680;2023-06-10T17:04:26;5.85;;;5.35;;
25637;SDS011;13496;51.040;13.680;2023-06-10T17:09:28;5.93;;;5.22;;
25637;SDS011;13496;51.040;13.680;2023-06-10T17:14:30;5.63;;;5.13;;
25637;SDS011;13496;51.040;13.680;2023-06-10T17:19:31;5.50;;;5.10;;
25637;SDS011;13496;51.040;13.680;2023-06-10T17:24:33;5.50;;;5.00;;
25637;SDS011;13496;51.040;13.680;2023-06-10T17:29:35;5.40;;;5.00;;
25637;SDS011;13496;51.040;13.680;2023-06-10T17:34:37;5.57;;;5.13;;
25637;SDS011;13496;51.040;13.680;2023-06-10T17:39:38;6.00;;;5.40;;
25637;SDS011;13496;51.040;13.680;2023-06-10T17:44:40;5.85;;;5.35;;
25637;SDS011;13496;51.040;13.680;2023-06-10T17:49:42;6.18;;;5.57;;
25637;SDS011;13496;51.040;13.680;2023-06-10T17:54:43;5.82;;;5.22;;
25637;SDS011;13496;51.040;13.680;2023-06-10T17:59:45;6.25;;;5.65;;
25637;SDS011;13496;51.040;13.680;2023-06-10T18:04:48;5.82;;;5.32;;
25637;SDS011;13496;51.040;13.680;2023-06-10T18:09:50;5.93;;;5.40;;
25637;SDS011;13496;51.040;13.680;2023-06-10T18:14:51;6.18;;;5.68;;
25637;SDS011;13496;51.040;13.680;2023-06-10T18:19:53;6.18;;;5.57;;
25637;SDS011;13496;51.040;13.680;2023-06-10T18:24:56;7.57;;;6.13;;
25637;SDS011;13496;51.040;13.680;2023-06-10T18:29:58;7.20;;;5.43;;
25637;SDS011;13496;51.040;13.680;2023-06-10T18:35:00;8.27;;;6.55;;
25637;SDS011;13496;51.040;13.680;2023-06-10T18:40:02;8.18;;;6.72;;
25637;SDS011;13496;51.040;13.680;2023-06-10T18:45:05;6.45;;;5.85;;
25637;SDS011;13496;51.040;13.680;2023-06-10T18:50:07;6.93;;;6.15;;
25637;SDS011;13496;51.040;13.680;2023-06-10T18:55:09;7.80;;;7.05;;
25637;SDS011;13496;51.040;13.680;2023-06-10T19:00:11;8.10;;;7.30;;
25637;SDS011;13496;51.040;13.680;2023-06-10T19:05:13;7.10;;;6.40;;
25637;SDS011;13496;51.040;13.680;2023-06-10T19:10:15;8.07;;;7.25;;
25637;SDS011;13496;51.040;13.680;2023-06-10T19:15:17;7.97;;;7.18;;
25637;SDS011;13496;51.040;13.680;2023-06-10T19:20:19;7.82;;;7.10;;
25637;SDS011;13496;51.040;13.680;2023-06-10T19:25:20;7.75;;;6.88;;
25637;SDS011;13496;51.040;13.680;2023-06-10T19:30:22;9.00;;;7.60;;
25637;SDS011;13496;51.040;13.680;2023-06-10T19:35:24;8.77;;;7.88;;
25637;SDS011;13496;51.040;13.680;2023-06-10T19:40:25;11.63;;;8.30;;
25637;SDS011;13496;51.040;13.680;2023-06-10T19:45:27;9.95;;;8.82;;
25637;SDS011;13496;51.040;13.680;2023-06-10T19:50:29;8.73;;;7.72;;
25637;SDS011;13496;51.040;13.680;2023-06-10T19:55:31;8.88;;;8.00;;
25637;SDS011;13496;51.040;13.680;2023-06-10T20:00:33;8.85;;;7.95;;
25637;SDS011;13496;51.040;13.680;2023-06-10T20:05:34;8.77;;;7.88;;
25637;SDS011;13496;51.040;13.680;2023-06-10T20:10:39;9.30;;;8.30;;
25637;SDS011;13496;51.040;13.680;2023-06-10T20:15:43;8.35;;;7.55;;
25637;SDS011;13496;51.040;13.680;2023-06-10T20:20:44;9.18;;;8.38;;
25637;SDS011;13496;51.040;13.680;2023-06-10T20:25:46;8.48;;;7.68;;
25637;SDS011;13496;51.040;13.680;2023-06-10T20:30:48;8.90;;;8.10;;
25637;SDS011;13496;51.040;13.680;2023-06-10T20:35:49;9.45;;;8.48;;
25637;SDS011;13496;51.040;13.680;2023-06-10T20:40:51;8.32;;;7.55;;
25637;SDS011;13496;51.040;13.680;2023-06-10T20:45:53;8.95;;;8.15;;
25637;SDS011;13496;51.040;13.680;2023-06-10T20:50:55;9.27;;;8.38;;
25637;SDS011;13496;51.040;13.680;2023-06-10T20:55:57;8.20;;;7.57;;
25637;SDS011;13496;51.040;13.680;2023-06-10T21:00:59;8.43;;;7.63;;
25637;SDS011;13496;51.040;13.680;2023-06-10T21:06:01;7.90;;;7.20;;
25637;SDS011;13496;51.040;13.680;2023-06-10T21:11:03;7.93;;;7.13;;
25637;SDS011;13496;51.040;13.680;2023-06-10T21:16:05;8.40;;;7.70;;
25637;SDS011;13496;51.040;13.680;2023-06-10T21:21:07;7.80;;;7.20;;
25637;SDS011;13496;51.040;13.680;2023-06-10T21:26:09;8.60;;;7.78;;
25637;SDS011;13496;51.040;13.680;2023-06-10T21:31:10;8.13;;;7.32;;
25637;SDS011;13496;51.040;13.680;2023-06-10T21:36:13;8.32;;;7.50;;
25637;SDS011;13496;51.040;13.680;2023-06-10T21:41:14;8.27;;;7.40;;
25637;SDS011;13496;51.040;13.680;2023-06-10T21:46:16;8.05;;;7.20;;
25637;SDS011;13496;51.040;13.680;2023-06-10T21:51:18;8.15;;;7.40;;
25637;SDS011;13496;51.040;13.680;2023-06-10T21:56:19;7.63;;;6.97;;
25637;SDS011;13496;51.040;13.680;2023-06-10T22:01:22;7.68;;;6.97;;
25637;SDS011;13496;51.040;13.680;2023-06-10T22:06:23;7.53;;;6.97;;
25637;SDS011;13496;51.040;13.680;2023-06-10T22:11:25;7.63;;;6.93;;
25637;SDS011;13496;51.040;13.680;2023-06-10T22:16:27;7.65;;;7.00;;
25637;SDS011;13496;51.040;13.680;2023-06-10T22:21:28;7.30;;;6.60;;
25637;SDS011;13496;51.040;13.680;2023-06-10T22:26:30;7.22;;;6.63;;
25637;SDS011;13496;51.040;13.680;2023-06-10T22:31:32;7.45;;;6.85;;
25637;SDS011;13496;51.040;13.680;2023-06-10T22:36:33;7.65;;;6.85;;
25637;SDS011;13496;51.040;13.680;2023-06-10T22:41:37;7.70;;;7.00;;
25637;SDS011;13496;51.040;13.680;2023-06-10T22:46:40;7.43;;;6.72;;
25637;SDS011;13496;51.040;13.680;2023-06-10T22:51:42;6.80;;;6.10;;
25637;SDS011;13496;51.040;13.680;2023-06-10T22:56:45;6.70;;;5.95;;
25637;SDS011;13496;51.040;13.680;2023-06-10T23:01:47;7.55;;;6.88;;
25637;SDS011;13496;51.040;13.680;2023-06-10T23:06:49;6.45;;;5.90;;
25637;SDS011;13496;51.040;13.680;2023-06-10T23:11:50;6.82;;;6.30;;
25637;SDS011;13496;51.040;13.680;2023-06-10T23:16:52;6.85;;;6.28;;
25637;SDS011;13496;51.040;13.680;2023-06-10T23:21:55;7.35;;;6.50;;
25637;SDS011;13496;51.040;13.680;2023-06-10T23:26:59;6.57;;;5.97;;
25637;SDS011;13496;51.040;13.680;2023-06-10T23:32:01;6.57;;;6.07;;
25637;SDS011;13496;51.040;13.680;2023-06-10T23:37:03;6.70;;;6.20;;
25637;SDS011;13496;51.040;13.680;2023-06-10T23:42:05;6.10;;;5.60;;
25637;SDS011;13496;51.040;13.680;2023-06-10T23:47:07;7.10;;;6.40;;
25637;SDS011;13496;51.040;13.680;2023-06-10T23:52:09;6.60;;;6.10;;
25637;SDS011;13496;51.040;13.680;2023-06-10T23:57:13;6.72;;;6.22;;
